Time;durP1;ratioP1;P1;durP2;ratioP2;P2;SDS_P1;SDS_P2;PMS_P1;PMS_P2;Temp;Humidity;BMP_temperature;BMP_pressure;BME280_temperature;BME280_humidity;BME280_pressure;Samples;Min_cycle;Max_cycle;Signal;HPM_P1;HPM_P2
2022/07/12 00:01:05;;;;;;;4.57;2.35;;;22.90;92.30;;;;;;5078370;28;20447;-63
2022/07/12 00:03:31;;;;;;;4.50;2.63;;;22.90;92.00;;;;;;5096011;28;20044;-61
2022/07/12 00:05:57;;;;;;;5.18;2.70;;;;;;;;;;5095677;28;20489;-61
2022/07/12 00:08:23;;;;;;;6.10;3.30;;;24.20;90.40;;;;;;5096974;28;20394;-67
2022/07/12 00:10:49;;;;;;;5.60;3.33;;;22.90;92.10;;;;;;5096583;28;20051;-65
2022/07/12 00:13:15;;;;;;;5.10;3.17;;;23.10;92.20;;;;;;5096355;28;20032;-65
2022/07/12 00:15:41;;;;;;;5.80;3.97;;;23.10;92.10;;;;;;5095809;28;20043;-62
2022/07/12 00:18:07;;;;;;;6.00;4.38;;;23.20;92.10;;;;;;5096710;28;20048;-61
2022/07/12 00:20:33;;;;;;;6.68;4.65;;;23.00;92.10;;;;;;5096262;28;20043;-61
2022/07/12 00:22:59;;;;;;;6.22;4.75;;;23.20;90.80;;;;;;5096209;28;20127;-61
2022/07/12 00:25:25;;;;;;;7.20;5.10;;;23.00;92.10;;;;;;5096263;28;20087;-61
2022/07/12 00:27:52;;;;;;;6.78;5.10;;;23.00;90.80;;;;;;5094632;28;20101;-61
2022/07/12 00:30:17;;;;;;;7.93;5.50;;;23.20;90.90;;;;;;5096519;28;20044;-61
2022/07/12 00:32:43;;;;;;;9.32;6.28;;;23.00;92.10;;;;;;5095784;28;20470;-61
2022/07/12 00:35:09;;;;;;;9.88;6.18;;;23.00;92.10;;;;;;5095983;28;20055;-61
2022/07/12 00:37:35;;;;;;;8.15;7.00;;;22.80;92.10;;;;;;5076788;28;20044;-61
2022/07/12 00:40:01;;;;;;;9.40;7.30;;;22.90;92.20;;;;;;5096339;28;20185;-61
2022/07/12 00:42:27;;;;;;;10.43;7.95;;;23.10;91.00;;;;;;5095067;28;20379;-62
2022/07/12 00:44:52;;;;;;;9.70;7.18;;;23.00;90.70;;;;;;5096209;28;20036;-61
2022/07/12 00:47:40;;;;;;;9.27;7.05;;;23.20;90.00;;;;;;5095606;28;20469;-65
2022/07/12 00:50:19;;;;;;;10.57;8.20;;;22.90;92.10;;;;;;5095263;28;20118;-61
2022/07/12 00:52:46;;;;;;;10.15;7.93;;;23.10;92.10;;;;;;5094431;28;20046;-60
2022/07/12 00:55:12;;;;;;;10.63;8.90;;;22.90;92.20;;;;;;5077902;28;20048;-61
2022/07/12 00:57:38;;;;;;;11.27;8.77;;;22.90;92.10;;;;;;5077567;28;20046;-61
2022/07/12 01:00:06;;;;;;;11.07;9.30;;;22.90;92.00;;;;;;5094259;28;20032;-61
2022/07/12 01:02:33;;;;;;;9.82;8.77;;;22.80;92.00;;;;;;5095471;28;20393;-61
2022/07/12 01:04:59;;;;;;;12.88;9.60;;;23.20;92.20;;;;;;5094588;28;20055;-61
2022/07/12 01:07:25;;;;;;;12.50;10.02;;;22.80;92.20;;;;;;5060700;28;20044;-61
2022/07/12 01:09:51;;;;;;;12.68;9.93;;;22.80;92.20;;;;;;5056617;28;20050;-61
2022/07/12 01:12:18;;;;;;;10.80;9.68;;;23.00;92.00;;;;;;5095509;28;20044;-61
2022/07/12 01:14:44;;;;;;;12.77;9.88;;;23.00;92.00;;;;;;5060349;28;20105;-61
2022/07/12 01:17:10;;;;;;;12.43;10.50;;;22.90;90.80;;;;;;5095123;28;20040;-61
2022/07/12 01:19:37;;;;;;;12.18;10.02;;;22.90;92.00;;;;;;5059036;28;20469;-61
2022/07/12 01:22:03;;;;;;;11.93;10.60;;;22.90;92.20;;;;;;5095507;28;20150;-61
2022/07/12 01:24:29;;;;;;;12.10;10.18;;;22.90;92.00;;;;;;5094561;28;20062;-61
2022/07/12 01:26:55;;;;;;;11.70;9.88;;;22.90;92.00;;;;;;5094812;28;20044;-61
2022/07/12 01:29:21;;;;;;;11.13;9.80;;;22.90;92.00;;;;;;5077132;28;20100;-61
2022/07/12 01:31:46;;;;;;;11.25;9.80;;;22.90;92.20;;;;;;5059827;28;20498;-61
2022/07/12 01:34:13;;;;;;;11.68;9.77;;;22.70;92.10;;;;;;5076230;28;20048;-61
2022/07/12 01:36:40;;;;;;;11.90;9.82;;;22.70;92.00;;;;;;5094732;28;20050;-61
2022/07/12 01:39:05;;;;;;;11.07;9.60;;;23.00;90.80;;;;;;5077160;28;20075;-61
2022/07/12 01:41:32;;;;;;;11.07;9.40;;;22.60;92.00;;;;;;5076026;28;20148;-61
2022/07/12 01:43:57;;;;;;;11.32;9.88;;;23.00;92.00;;;;;;5094144;28;20044;-61
2022/07/12 01:46:23;;;;;;;11.25;9.85;;;23.00;92.10;;;;;;5093310;28;20379;-62
2022/07/12 01:48:49;;;;;;;10.90;9.15;;;22.80;92.00;;;;;;5094632;28;20040;-61
2022/07/12 01:51:15;;;;;;;11.95;9.77;;;22.70;92.00;;;;;;5095023;28;20067;-62
2022/07/12 01:53:40;;;;;;;10.73;9.25;;;22.80;92.10;;;;;;5092136;28;20044;-63
2022/07/12 01:56:06;;;;;;;11.00;9.18;;;22.90;92.00;;;;;;5076274;28;20509;-61
2022/07/12 01:58:32;;;;;;;11.35;8.88;;;22.90;92.10;;;;;;5094260;28;20044;-61
2022/07/12 02:00:58;;;;;;;10.65;9.02;;;22.70;92.00;;;;;;5093262;28;20473;-61
2022/07/12 02:03:23;;;;;;;11.43;9.45;;;23.00;92.10;;;;;;5066801;28;20048;-61
2022/07/12 02:05:49;;;;;;;11.13;9.27;;;22.70;92.00;;;;;;5094656;28;20044;-61
2022/07/12 02:08:15;;;;;;;10.13;8.38;;;22.80;92.00;;;;;;5094175;28;20405;-61
2022/07/12 02:10:41;;;;;;;10.52;8.57;;;22.80;92.00;;;;;;5094250;28;20040;-61
2022/07/12 02:13:07;;;;;;;10.63;9.18;;;22.70;92.00;;;;;;5093499;28;20054;-61
2022/07/12 02:15:32;;;;;;;9.45;8.02;;;22.80;90.70;;;;;;5094227;28;20481;-61
2022/07/12 02:17:58;;;;;;;9.95;7.97;;;22.70;91.90;;;;;;5092147;28;20048;-62
2022/07/12 02:20:24;;;;;;;9.88;8.57;;;22.80;92.10;;;;;;5094456;28;20043;-61
2022/07/12 02:22:50;;;;;;;10.13;8.23;;;22.70;90.80;;;;;;5093689;28;20474;-61
2022/07/12 02:25:15;;;;;;;9.63;8.23;;;22.80;92.00;;;;;;5074972;28;20405;-61
2022/07/12 02:27:41;;;;;;;10.75;8.55;;;23.00;92.30;;;;;;5094319;28;20044;-61
2022/07/12 02:30:08;;;;;;;9.90;7.80;;;22.90;92.10;;;;;;5093230;28;20436;-61
2022/07/12 02:32:34;;;;;;;9.75;7.93;;;22.70;90.70;;;;;;5094214;28;20040;-61
2022/07/12 02:34:59;;;;;;;10.50;8.52;;;22.70;90.80;;;;;;5092882;28;20500;-63
2022/07/12 02:37:25;;;;;;;9.70;8.02;;;22.80;92.10;;;;;;5094489;28;20047;-62
2022/07/12 02:39:51;;;;;;;9.15;7.25;;;22.80;90.80;;;;;;5092089;28;20105;-61
2022/07/12 02:42:17;;;;;;;8.85;7.20;;;22.50;92.00;;;;;;5094129;28;20097;-61
2022/07/12 02:44:43;;;;;;;10.18;7.90;;;;;;;;;;5093173;28;20504;-67
2022/07/12 02:47:09;;;;;;;9.70;7.80;;;22.60;92.00;;;;;;5093273;28;20116;-61
2022/07/12 02:49:34;;;;;;;8.98;7.47;;;22.60;92.00;;;;;;5075846;28;20135;-61
2022/07/12 02:52:00;;;;;;;8.63;6.82;;;22.80;92.00;;;;;;5075761;28;20088;-62
2022/07/12 02:54:26;;;;;;;8.90;6.88;;;22.70;92.10;;;;;;5093165;28;20047;-62
2022/07/12 02:56:52;;;;;;;8.80;6.88;;;;;;;;;;5073859;28;20052;-62
2022/07/12 02:59:18;;;;;;;8.82;7.07;;;22.60;92.00;;;;;;5093333;28;20048;-61
2022/07/12 03:01:43;;;;;;;8.45;6.75;;;22.70;92.00;;;;;;5093840;28;20405;-61
2022/07/12 03:04:09;;;;;;;9.73;7.00;;;22.80;92.10;;;;;;5093345;28;20048;-61
2022/07/12 03:06:35;;;;;;;7.72;6.38;;;22.50;91.90;;;;;;5092705;28;20040;-61
2022/07/12 03:09:00;;;;;;;10.00;6.75;;;22.60;92.00;;;;;;5075306;28;20039;-61
2022/07/12 03:11:26;;;;;;;9.23;7.53;;;22.90;92.20;;;;;;5093369;28;20466;-61
2022/07/12 03:13:52;;;;;;;7.95;6.63;;;22.70;92.00;;;;;;5093611;28;20040;-61
2022/07/12 03:16:18;;;;;;;8.38;6.72;;;22.50;92.00;;;;;;5093726;28;20059;-61
2022/07/12 03:18:44;;;;;;;8.85;6.70;;;22.70;92.00;;;;;;5091822;28;20070;-61
2022/07/12 03:21:11;;;;;;;7.70;6.07;;;22.50;92.10;;;;;;5093626;28;20040;-62
2022/07/12 03:23:36;;;;;;;8.15;6.20;;;22.70;92.00;;;;;;5092808;28;20051;-62
2022/07/12 03:26:02;;;;;;;9.45;6.40;;;22.70;92.00;;;;;;5092952;28;20048;-63
2022/07/12 03:28:28;;;;;;;8.48;6.53;;;22.80;92.10;;;;;;5092549;28;20517;-62
2022/07/12 03:30:54;;;;;;;8.07;6.38;;;22.70;92.10;;;;;;5091311;28;20044;-62
2022/07/12 03:33:20;;;;;;;8.07;6.45;;;22.60;92.00;;;;;;5094176;28;20036;-62
2022/07/12 03:35:45;;;;;;;8.88;6.28;;;22.70;90.80;;;;;;5097614;28;20428;-62
2022/07/12 03:38:11;;;;;;;9.10;6.20;;;22.50;91.90;;;;;;5096261;28;20097;-62
2022/07/12 03:40:37;;;;;;;9.02;7.00;;;22.60;92.00;;;;;;5085577;28;20040;-62
2022/07/12 03:43:03;;;;;;;7.95;5.95;;;22.50;91.90;;;;;;5096928;28;20047;-62
2022/07/12 03:45:28;;;;;;;9.38;5.88;;;22.70;92.40;;;;;;5097106;28;20478;-62
2022/07/12 03:47:54;;;;;;;8.00;6.18;;;22.60;92.10;;;;;;5079009;28;20412;-62
2022/07/12 03:50:20;;;;;;;7.20;5.07;;;22.60;92.10;;;;;;5078314;28;20036;-61
2022/07/12 03:52:46;;;;;;;8.02;6.07;;;22.40;91.90;;;;;;5095702;28;20055;-62
2022/07/12 03:55:12;;;;;;;7.93;5.38;;;22.80;92.00;;;;;;5097202;28;20086;-62
2022/07/12 03:57:38;;;;;;;7.68;5.82;;;22.80;92.10;;;;;;5097161;28;20135;-62
2022/07/12 04:00:10;;;;;;;8.38;5.38;;;22.60;92.00;;;;;;5095002;28;20118;-62
2022/07/12 04:02:37;;;;;;;7.50;5.43;;;22.70;92.00;;;;;;5078385;28;20048;-62
2022/07/12 04:05:04;;;;;;;6.78;4.95;;;22.50;91.90;;;;;;5096597;28;20052;-63
2022/07/12 04:07:29;;;;;;;8.20;5.63;;;22.70;90.50;;;;;;5097817;28;20044;-62
2022/07/12 04:09:55;;;;;;;7.72;5.88;;;22.80;92.00;;;;;;5096962;28;20051;-63
2022/07/12 04:12:21;;;;;;;6.85;4.90;;;22.60;92.00;;;;;;5095327;28;20043;-62
2022/07/12 04:14:47;;;;;;;7.13;5.25;;;22.60;91.90;;;;;;5096803;28;20040;-62
2022/07/12 04:17:12;;;;;;;6.43;5.13;;;22.70;92.00;;;;;;5096368;28;20044;-62
2022/07/12 04:19:38;;;;;;;7.15;5.13;;;22.60;91.90;;;;;;5096709;28;20130;-62
2022/07/12 04:22:04;;;;;;;6.78;5.05;;;22.80;90.80;;;;;;5095772;28;20394;-62
2022/07/12 04:24:29;;;;;;;6.80;4.70;;;22.80;90.60;;;;;;5095931;28;20538;-61
2022/07/12 04:26:55;;;;;;;7.32;5.15;;;22.70;92.00;;;;;;5096648;28;20463;-63
2022/07/12 04:29:21;;;;;;;5.90;4.57;;;22.50;91.90;;;;;;5096543;28;20110;-63
2022/07/12 04:31:47;;;;;;;7.43;5.20;;;22.50;91.90;;;;;;5095527;28;20044;-63
2022/07/12 04:34:16;;;;;;;6.38;4.75;;;22.60;91.90;;;;;;5095754;28;20047;-61
2022/07/12 04:36:45;;;;;;;6.18;4.75;;;22.50;92.00;;;;;;5096474;28;20118;-61
2022/07/12 04:39:11;;;;;;;6.65;4.88;;;22.60;91.90;;;;;;5096324;28;20044;-62
2022/07/12 04:41:37;;;;;;;6.22;4.70;;;23.00;92.00;;;;;;5096385;28;20044;-62
2022/07/12 04:44:06;;;;;;;7.45;4.20;;;22.80;91.90;;;;;;5094594;28;20513;-62
2022/07/12 04:46:32;;;;;;;6.15;4.50;;;22.70;91.90;;;;;;5075264;28;20532;-62
2022/07/12 04:48:58;;;;;;;6.80;4.53;;;22.70;90.50;;;;;;5074842;28;20402;-63
2022/07/12 04:51:24;;;;;;;8.48;4.60;;;22.80;90.60;;;;;;5079658;28;20024;-61
2022/07/12 04:53:50;;;;;;;6.13;4.53;;;22.90;91.90;;;;;;5095164;28;20544;-62
2022/07/12 04:56:15;;;;;;;7.20;4.30;;;22.90;91.90;;;;;;5093884;28;20075;-66
2022/07/12 04:58:42;;;;;;;6.40;4.50;;;;;;;;;;5095634;28;20097;-65
2022/07/12 05:01:07;;;;;;;5.93;4.00;;;22.90;91.90;;;;;;5096002;28;20072;-65
2022/07/12 05:03:34;;;;;;;5.90;4.28;;;;;;;;;;5075999;28;20430;-65
2022/07/12 05:05:59;;;;;;;5.70;3.97;;;22.90;91.90;;;;;;5094985;28;20115;-61
2022/07/12 05:08:25;;;;;;;5.68;3.65;;;22.60;91.80;;;;;;5095149;28;20086;-61
2022/07/12 05:10:51;;;;;;;5.97;3.90;;;22.70;91.70;;;;;;5076620;28;20044;-62
2022/07/12 05:13:16;;;;;;;6.95;4.38;;;23.00;91.90;;;;;;5095345;28;20397;-62
2022/07/12 05:15:44;;;;;;;6.20;4.20;;;22.90;91.90;;;;;;5094405;28;20085;-63
2022/07/12 05:18:11;;;;;;;5.43;3.72;;;22.80;91.80;;;;;;5093167;28;20044;-62
2022/07/12 05:20:37;;;;;;;5.75;3.85;;;22.80;91.80;;;;;;5095617;28;20378;-62
2022/07/12 05:23:02;;;;;;;6.82;4.00;;;23.00;91.80;;;;;;5095539;28;20101;-67
2022/07/12 05:25:28;;;;;;;5.38;3.55;;;22.70;91.80;;;;;;5094093;28;20060;-65
2022/07/12 05:27:54;;;;;;;6.78;4.20;;;22.80;91.80;;;;;;5095065;28;20036;-64
2022/07/12 05:30:21;;;;;;;5.65;3.88;;;22.80;91.80;;;;;;5095382;28;20040;-64
2022/07/12 05:32:47;;;;;;;5.78;3.80;;;22.80;91.70;;;;;;5095394;28;20041;-68
2022/07/12 05:35:13;;;;;;;5.43;3.63;;;23.00;90.30;;;;;;5095182;28;20055;-67
2022/07/12 05:37:38;;;;;;;5.00;3.30;;;22.90;91.80;;;;;;5058809;28;20047;-64
2022/07/12 05:40:05;;;;;;;5.15;3.65;;;22.70;91.70;;;;;;5094328;28;20121;-67
2022/07/12 05:42:30;;;;;;;5.38;3.45;;;23.00;91.70;;;;;;5094934;28;20495;-62
2022/07/12 05:44:56;;;;;;;5.00;3.33;;;23.10;91.70;;;;;;5094798;28;20134;-61
2022/07/12 05:47:22;;;;;;;5.40;3.40;;;22.80;91.60;;;;;;5093812;28;20104;-62
2022/07/12 05:49:47;;;;;;;5.55;3.70;;;23.00;91.80;;;;;;5094421;28;20036;-61
2022/07/12 05:54:57;;;;;;;5.20;3.50;;;23.00;91.90;;;;;;5093923;28;20076;-67
2022/07/12 05:57:23;;;;;;;5.95;3.55;;;22.90;91.80;;;;;;5093838;28;20087;-66
2022/07/12 05:59:49;;;;;;;5.90;3.50;;;23.10;91.80;;;;;;5094292;28;20447;-66
2022/07/12 06:02:14;;;;;;;4.93;3.25;;;22.90;91.50;;;;;;5082048;28;20044;-67
2022/07/12 06:04:40;;;;;;;5.28;3.40;;;23.30;91.70;;;;;;5094534;28;20092;-68
2022/07/12 06:07:06;;;;;;;5.50;3.20;;;23.20;91.80;;;;;;5094379;28;20510;-63
2022/07/12 06:09:31;;;;;;;4.72;3.13;;;23.10;90.30;;;;;;5094285;28;20051;-61
2022/07/12 06:11:57;;;;;;;4.80;2.97;;;23.20;91.50;;;;;;5088144;28;20028;-62
2022/07/12 06:14:23;;;;;;;5.20;3.50;;;;;;;;;;5093960;28;20470;-63
2022/07/12 06:16:49;;;;;;;4.10;2.72;;;23.10;91.60;;;;;;5094040;28;20115;-62
2022/07/12 06:19:15;;;;;;;4.53;3.00;;;23.20;91.70;;;;;;5093989;28;20560;-61
2022/07/12 06:21:41;;;;;;;5.60;2.97;;;23.30;91.70;;;;;;5092904;28;20038;-61
2022/07/12 06:24:07;;;;;;;5.05;3.17;;;23.30;91.40;;;;;;5093155;28;20535;-62
2022/07/12 06:26:33;;;;;;;4.80;2.92;;;;;;;;;;5094141;28;20044;-62
2022/07/12 06:28:59;;;;;;;5.10;2.92;;;23.30;89.20;;;;;;5094324;28;20048;-69
2022/07/12 06:31:26;;;;;;;4.90;3.10;;;23.20;91.50;;;;;;5092094;28;20044;-61
2022/07/12 06:33:52;;;;;;;5.32;3.17;;;23.30;90.20;;;;;;5093110;28;20047;-61
2022/07/12 06:36:18;;;;;;;4.90;3.20;;;;;;;;;;5094195;28;20124;-61
2022/07/12 06:38:43;;;;;;;4.30;2.70;;;23.20;88.60;;;;;;5094149;28;20393;-61
2022/07/12 06:41:09;;;;;;;6.13;3.65;;;23.40;90.20;;;;;;5075988;28;20083;-62
2022/07/12 06:43:35;;;;;;;5.07;2.70;;;23.40;91.40;;;;;;5074047;28;20478;-62
2022/07/12 06:46:01;;;;;;;4.72;2.97;;;23.30;91.40;;;;;;5093745;28;20040;-62
2022/07/12 06:48:26;;;;;;;5.13;2.85;;;23.40;91.30;;;;;;5093988;28;20040;-61
2022/07/12 06:50:52;;;;;;;4.35;2.85;;;23.50;91.30;;;;;;5093486;28;20044;-62
2022/07/12 06:53:18;;;;;;;4.97;2.95;;;23.70;91.20;;;;;;5092864;28;20048;-61
2022/07/12 06:55:44;;;;;;;5.03;2.75;;;23.70;90.00;;;;;;5092131;28;20544;-63
2022/07/12 06:58:10;;;;;;;5.32;3.25;;;23.50;91.10;;;;;;5093792;28;20123;-64
2022/07/12 07:00:36;;;;;;;5.43;2.80;;;23.40;89.60;;;;;;5075514;28;20477;-64
2022/07/12 07:03:02;;;;;;;5.20;3.17;;;23.80;91.20;;;;;;5092611;28;20048;-61
2022/07/12 07:05:27;;;;;;;4.78;2.90;;;23.80;90.90;;;;;;5090878;28;20446;-62
2022/07/12 07:07:53;;;;;;;4.72;3.10;;;23.80;90.90;;;;;;5092997;28;20079;-61
2022/07/12 07:10:19;;;;;;;5.88;3.05;;;23.90;90.90;;;;;;5093415;28;20036;-60
2022/07/12 07:12:45;;;;;;;5.07;3.30;;;24.00;90.50;;;;;;5093642;28;20055;-62
2022/07/12 07:15:13;;;;;;;5.72;3.10;;;24.00;90.70;;;;;;5074801;28;20032;-61
2022/07/12 07:17:39;;;;;;;4.80;3.00;;;24.00;90.70;;;;;;5092307;28;20086;-62
2022/07/12 07:20:05;;;;;;;4.93;3.10;;;23.90;88.70;;;;;;5093579;28;20044;-61
2022/07/12 07:22:31;;;;;;;5.22;3.00;;;24.10;88.30;;;;;;5092858;28;20371;-61
2022/07/12 07:24:57;;;;;;;4.97;3.13;;;24.20;90.60;;;;;;5092024;28;20062;-64
2022/07/12 07:27:23;;;;;;;6.88;3.30;;;24.40;90.50;;;;;;5091725;28;20048;-61
2022/07/12 07:32:33;;;;;;;5.50;3.20;;;24.30;87.20;;;;;;5093251;28;20114;-61
2022/07/12 07:34:58;;;;;;;4.38;3.20;;;24.40;88.00;;;;;;5093358;28;20056;-61
2022/07/12 07:37:24;;;;;;;4.55;3.03;;;24.50;87.50;;;;;;5092045;28;20496;-62
2022/07/12 07:39:50;;;;;;;5.35;3.40;;;24.70;90.10;;;;;;5093065;28;20136;-62
2022/07/12 07:42:16;;;;;;;5.30;3.08;;;24.70;90.00;;;;;;5092901;28;20040;-61
2022/07/12 07:44:42;;;;;;;6.47;3.10;;;24.60;87.20;;;;;;5093465;28;20420;-62
2022/07/12 07:47:07;;;;;;;4.35;2.88;;;24.90;87.30;;;;;;5073656;28;20044;-61
2022/07/12 07:49:33;;;;;;;4.60;3.10;;;25.10;87.10;;;;;;5092814;28;20040;-61
2022/07/12 07:51:59;;;;;;;7.05;3.22;;;24.60;86.80;;;;;;5093074;28;20447;-62
2022/07/12 07:54:25;;;;;;;4.45;2.88;;;24.80;86.70;;;;;;5093066;28;20059;-62
2022/07/12 07:56:51;;;;;;;4.70;2.92;;;25.00;89.60;;;;;;5090901;28;20051;-61
2022/07/12 07:59:17;;;;;;;5.07;3.35;;;25.00;89.40;;;;;;5092457;28;20385;-61
2022/07/12 08:01:44;;;;;;;6.60;3.70;;;25.10;86.80;;;;;;5073415;28;20048;-61
2022/07/12 08:04:11;;;;;;;6.22;3.88;;;25.20;86.80;;;;;;5093058;28;20044;-61
2022/07/12 08:06:37;;;;;;;6.15;3.40;;;25.20;86.80;;;;;;5092911;28;20118;-61
2022/07/12 08:09:04;;;;;;;6.28;3.42;;;25.20;85.90;;;;;;5091792;28;20040;-61
2022/07/12 08:11:30;;;;;;;5.70;3.20;;;25.30;86.30;;;;;;5091937;28;20513;-62
2022/07/12 08:13:55;;;;;;;6.05;3.72;;;25.50;85.80;;;;;;5092761;28;20040;-61
2022/07/12 08:16:21;;;;;;;7.50;3.95;;;25.40;86.00;;;;;;5092958;28;20050;-61
2022/07/12 08:18:47;;;;;;;5.90;3.65;;;25.20;85.60;;;;;;5091209;28;20048;-61
2022/07/12 08:21:13;;;;;;;6.60;3.90;;;25.50;85.80;;;;;;5094628;28;20128;-61
2022/07/12 08:23:38;;;;;;;6.97;3.90;;;25.70;85.40;;;;;;5096720;28;20058;-60
2022/07/12 08:26:04;;;;;;;5.93;4.00;;;25.60;88.10;;;;;;5096155;28;20048;-61
2022/07/12 08:28:33;;;;;;;5.30;3.83;;;25.80;85.20;;;;;;5096649;28;20071;-61
2022/07/12 08:30:58;;;;;;;5.85;3.63;;;25.70;84.20;;;;;;5094163;28;20047;-62
2022/07/12 08:33:24;;;;;;;5.45;3.75;;;25.80;85.20;;;;;;5095211;28;20044;-61
2022/07/12 08:35:50;;;;;;;6.15;3.55;;;26.00;87.80;;;;;;5096781;28;20101;-61
2022/07/12 08:38:16;;;;;;;6.00;3.33;;;25.70;84.80;;;;;;5095388;28;20432;-61
2022/07/12 08:40:42;;;;;;;5.53;3.72;;;25.70;84.80;;;;;;5096380;28;20040;-61
2022/07/12 08:43:08;;;;;;;5.72;3.75;;;26.00;84.80;;;;;;5096264;28;20068;-61
2022/07/12 08:45:34;;;;;;;6.47;3.90;;;25.80;84.70;;;;;;5092929;28;20040;-61
2022/07/12 08:47:59;;;;;;;5.10;3.40;;;26.10;84.70;;;;;;5095215;28;20451;-62
2022/07/12 08:50:27;;;;;;;6.18;3.20;;;25.60;84.40;;;;;;5071176;28;20492;-62
2022/07/12 08:52:53;;;;;;;5.28;3.60;;;26.00;84.90;;;;;;5095202;28;20044;-61
2022/07/12 08:55:24;;;;;;;6.10;3.20;;;26.00;85.20;;;;;;5074093;28;20059;-61
2022/07/12 08:57:50;;;;;;;5.07;3.53;;;26.00;83.60;;;;;;5077727;28;20056;-63
2022/07/12 09:00:16;;;;;;;5.40;3.40;;;25.90;85.20;;;;;;5092136;28;20041;-62
2022/07/12 09:02:52;;;;;;;5.35;3.17;;;25.70;84.60;;;;;;5094304;28;20036;-69
2022/07/12 09:05:23;;;;;;;6.95;3.33;;;26.00;84.00;;;;;;5094137;28;20118;-71
2022/07/12 09:07:50;;;;;;;5.85;3.50;;;25.80;85.50;;;;;;5095711;28;20499;-70
2022/07/12 09:10:16;;;;;;;5.22;3.63;;;25.90;85.90;;;;;;5053592;28;20040;-63
2022/07/12 09:12:42;;;;;;;5.75;3.47;;;26.00;85.10;;;;;;5094378;28;20051;-62
2022/07/12 09:15:21;;;;;;;5.10;3.40;;;25.90;85.30;;;;;;5077459;28;20036;-70
2022/07/12 09:17:58;;;;;;;5.35;3.35;;;26.00;84.30;;;;;;5065193;28;20056;-69
2022/07/12 09:20:30;;;;;;;6.70;3.30;;;25.80;84.00;;;;;;5092890;28;20677;-65
2022/07/12 09:22:59;;;;;;;4.57;3.17;;;25.80;84.00;;;;;;5075037;28;20044;-67
2022/07/12 09:25:25;;;;;;;6.15;3.65;;;26.10;85.50;;;;;;5077678;28;20060;-71
2022/07/12 09:27:52;;;;;;;4.97;3.30;;;26.00;84.80;;;;;;5055015;28;20063;-72
2022/07/12 09:30:19;;;;;;;5.18;3.40;;;26.10;85.20;;;;;;5070860;28;20402;-71
2022/07/12 09:38:26;;;;;;;5.32;2.97;;;26.00;87.90;;;;;;5074887;28;20091;-71
2022/07/12 09:40:55;;;;;;;5.90;3.10;;;25.90;85.00;;;;;;5073579;28;20062;-72
2022/07/12 09:43:22;;;;;;;4.55;2.55;;;25.80;83.50;;;;;;5073009;28;20037;-72
2022/07/12 09:45:48;;;;;;;5.70;3.00;;;26.10;85.10;;;;;;5073245;28;20095;-69
2022/07/12 09:48:15;;;;;;;7.55;3.67;;;26.10;85.10;;;;;;5072578;28;20068;-72
2022/07/12 09:50:41;;;;;;;4.90;2.70;;;25.90;85.20;;;;;;5071026;28;20060;-73
2022/07/12 09:53:09;;;;;;;4.88;3.15;;;25.80;85.20;;;;;;5073005;28;20076;-71
2022/07/12 09:55:36;;;;;;;5.32;3.00;;;26.00;85.10;;;;;;5060305;28;20048;-73
2022/07/12 09:58:03;;;;;;;6.13;3.40;;;26.10;85.50;;;;;;5076881;28;20446;-63
2022/07/12 10:00:31;;;;;;;5.70;3.70;;;25.80;85.10;;;;;;5095422;28;20063;-63
2022/07/12 10:02:58;;;;;;;4.90;3.42;;;25.80;85.50;;;;;;5059354;28;20083;-63
2022/07/12 10:05:25;;;;;;;7.47;3.08;;;25.90;84.90;;;;;;5076751;28;20040;-63
2022/07/12 10:07:51;;;;;;;5.68;3.35;;;26.00;85.50;;;;;;5076344;28;20044;-63
2022/07/12 10:10:17;;;;;;;4.75;3.08;;;25.80;85.70;;;;;;5094374;28;20062;-62
2022/07/12 10:12:43;;;;;;;5.50;3.50;;;25.80;85.30;;;;;;5094080;28;20036;-63
2022/07/12 10:15:19;;;;;;;5.00;3.22;;;26.10;85.60;;;;;;5076000;28;20059;-63
2022/07/12 10:17:53;;;;;;;4.93;3.15;;;26.10;86.30;;;;;;5059968;28;20047;-62
2022/07/12 10:20:23;;;;;;;4.88;2.83;;;26.00;86.30;;;;;;5076688;28;20051;-63
2022/07/12 10:22:49;;;;;;;5.50;2.92;;;25.70;85.60;;;;;;5075470;28;20040;-62
2022/07/12 10:25:34;;;;;;;5.03;2.80;;;25.90;86.10;;;;;;5094101;28;20067;-63
2022/07/12 10:28:00;;;;;;;6.30;3.30;;;25.90;86.40;;;;;;5094059;28;20067;-62
2022/07/12 10:30:26;;;;;;;5.32;2.90;;;26.10;86.40;;;;;;5074815;28;20044;-62
2022/07/12 10:32:59;;;;;;;4.75;3.15;;;25.90;85.90;;;;;;5084443;28;20051;-63
2022/07/12 10:35:29;;;;;;;6.80;3.67;;;25.90;86.20;;;;;;5093110;28;20040;-63
2022/07/12 10:38:13;;;;;;;6.28;3.70;;;26.10;84.80;;;;;;5094139;28;20434;-62
2022/07/12 10:40:40;;;;;;;5.72;3.60;;;25.70;86.20;;;;;;5074941;28;20087;-63
2022/07/12 10:43:06;;;;;;;8.18;3.50;;;26.00;86.30;;;;;;5092274;28;20040;-63
2022/07/12 10:45:36;;;;;;;6.15;3.53;;;25.80;89.60;;;;;;5068126;28;20055;-63
2022/07/12 10:48:04;;;;;;;5.30;3.65;;;25.80;86.40;;;;;;5075973;28;20039;-63
2022/07/12 10:51:00;;;;;;;6.28;3.42;;;25.90;86.50;;;;;;5092972;28;20089;-63
2022/07/12 10:53:29;;;;;;;6.00;3.65;;;25.70;86.60;;;;;;5077437;28;20405;-63
2022/07/12 10:56:04;;;;;;;5.85;3.22;;;25.90;86.50;;;;;;5091992;28;20096;-62
2022/07/12 10:58:33;;;;;;;5.72;3.25;;;25.70;86.50;;;;;;5090275;28;20134;-63
2022/07/12 11:00:59;;;;;;;5.05;3.33;;;25.90;86.80;;;;;;5093249;28;20139;-62
2022/07/12 11:03:50;;;;;;;5.95;3.60;;;26.10;86.60;;;;;;5093251;28;20441;-62
2022/07/12 11:06:21;;;;;;;4.95;3.33;;;25.80;86.70;;;;;;5092859;28;20432;-62
2022/07/12 11:08:47;;;;;;;5.28;3.70;;;26.00;85.20;;;;;;5074586;28;20559;-71
2022/07/12 11:11:13;;;;;;;5.97;3.60;;;25.90;86.60;;;;;;5093748;28;20044;-71
2022/07/12 11:13:38;;;;;;;7.60;3.50;;;25.80;86.60;;;;;;5074814;28;20408;-69
2022/07/12 11:16:05;;;;;;;6.18;3.10;;;25.80;86.40;;;;;;5093944;28;20044;-72
2022/07/12 11:18:31;;;;;;;5.47;3.10;;;25.90;86.10;;;;;;5092337;28;20040;-65
2022/07/12 11:20:57;;;;;;;5.10;3.13;;;26.00;86.50;;;;;;5093666;28;20044;-71
2022/07/12 11:23:24;;;;;;;5.65;3.13;;;25.90;86.70;;;;;;5093137;28;20048;-63
2022/07/12 11:25:50;;;;;;;5.25;2.88;;;25.70;86.40;;;;;;5075189;28;20040;-62
2022/07/12 11:28:18;;;;;;;8.27;3.28;;;25.80;86.40;;;;;;5092740;28;20047;-62
2022/07/12 11:30:53;;;;;;;6.25;2.75;;;25.90;86.50;;;;;;5075750;28;20439;-62
2022/07/12 11:33:21;;;;;;;5.45;2.88;;;25.90;86.70;;;;;;5093004;28;20043;-63
2022/07/12 11:35:47;;;;;;;5.72;2.88;;;25.90;86.60;;;;;;5058757;28;20119;-62
2022/07/12 11:38:13;;;;;;;4.50;2.75;;;26.00;86.70;;;;;;5093758;28;20109;-63
2022/07/12 11:40:40;;;;;;;6.97;3.13;;;25.80;86.30;;;;;;5092379;28;20040;-63
2022/07/12 11:43:05;;;;;;;4.50;2.65;;;26.00;86.70;;;;;;5093542;28;20044;-67
2022/07/12 11:45:32;;;;;;;5.82;2.58;;;25.80;86.40;;;;;;5075495;28;20051;-71
2022/07/12 11:48:02;;;;;;;5.13;2.70;;;25.80;86.60;;;;;;5075251;28;20036;-70
2022/07/12 11:50:31;;;;;;;9.48;2.95;;;25.90;86.60;;;;;;5091919;28;20086;-66
2022/07/12 11:52:57;;;;;;;4.72;2.45;;;25.80;86.50;;;;;;5093317;28;20040;-65
2022/07/12 11:55:23;;;;;;;4.07;2.58;;;25.70;86.30;;;;;;5095858;28;20409;-65
2022/07/12 11:57:49;;;;;;;4.80;2.20;;;25.80;86.40;;;;;;5062175;28;20398;-72
2022/07/12 12:00:14;;;;;;;4.72;2.22;;;26.00;86.50;;;;;;5095357;28;22017;-62
2022/07/12 12:02:40;;;;;;;3.78;2.30;;;25.70;86.30;;;;;;5097225;28;20040;-63
2022/07/12 12:05:06;;;;;;;3.10;1.90;;;25.80;86.30;;;;;;5095787;28;20044;-63
2022/07/12 12:07:32;;;;;;;3.72;2.20;;;25.80;86.20;;;;;;5079026;28;20083;-63
2022/07/12 12:09:59;;;;;;;3.63;2.20;;;25.90;86.40;;;;;;5078996;28;20048;-62
2022/07/12 12:12:25;;;;;;;4.75;2.13;;;25.70;86.70;;;;;;5094245;28;20474;-63
2022/07/12 12:14:51;;;;;;;3.42;1.98;;;25.70;86.20;;;;;;5061714;28;20052;-63
2022/07/12 12:17:17;;;;;;;3.05;2.00;;;25.70;89.60;;;;;;5078243;28;20054;-69
2022/07/12 12:19:43;;;;;;;4.43;2.40;;;25.80;86.50;;;;;;5061714;28;20123;-69
2022/07/12 12:22:37;;;;;;;3.65;2.05;;;25.90;86.90;;;;;;5094076;28;20545;-61
2022/07/12 12:25:04;;;;;;;9.93;2.13;;;25.70;87.70;;;;;;5078343;28;20058;-61
2022/07/12 12:27:30;;;;;;;4.93;2.13;;;26.00;90.30;;;;;;5095879;28;21235;-65
2022/07/12 12:30:07;;;;;;;4.78;2.10;;;25.90;87.10;;;;;;5077248;28;20378;-63
2022/07/12 12:32:46;;;;;;;2.78;1.80;;;26.00;87.20;;;;;;5089496;28;20032;-63
2022/07/12 12:35:12;;;;;;;4.53;2.05;;;26.30;88.00;;;;;;5096418;28;20071;-64
2022/07/12 12:37:39;;;;;;;4.43;1.90;;;25.90;87.20;;;;;;5096514;28;20040;-62
2022/07/12 12:40:06;;;;;;;2.50;1.73;;;26.10;87.20;;;;;;5096303;28;20048;-61
2022/07/12 12:42:32;;;;;;;3.50;1.80;;;26.00;87.00;;;;;;5077385;28;20052;-62
2022/07/12 12:44:57;;;;;;;2.97;1.70;;;26.10;87.10;;;;;;5095898;28;20486;-62
2022/07/12 12:47:33;;;;;;;5.88;1.70;;;25.80;86.90;;;;;;5096110;28;20048;-61
2022/07/12 12:50:02;;;;;;;12.75;2.05;;;26.10;86.00;;;;;;5096258;28;20040;-62
2022/07/12 12:52:29;;;;;;;12.40;2.35;;;26.00;90.00;;;;;;5095167;28;20183;-61
2022/07/12 12:54:55;;;;;;;8.98;1.88;;;25.80;86.90;;;;;;5095691;28;20040;-61
2022/07/12 12:57:21;;;;;;;7.53;1.83;;;26.20;87.00;;;;;;5096085;28;20046;-62